createdAt,value
2023-01-31T00:19:41.486Z,983.7
2023-01-31T00:49:51.000Z,983.4
2023-01-31T01:19:54.000Z,983.1
2023-01-31T01:49:58.437Z,983
2023-01-31T02:20:02.000Z,983.4
2023-01-31T02:50:03.274Z,983.3
2023-01-31T03:20:04.000Z,983.5
2023-01-31T03:50:07.612Z,983.5
2023-01-31T04:20:18.000Z,983.7
2023-01-31T04:50:23.144Z,983.8
2023-01-31T05:20:24.000Z,984.0
2023-01-31T05:50:34.130Z,984
2023-01-31T06:20:35.000Z,984.1
2023-01-31T06:50:39.112Z,984.1
2023-01-31T07:20:44.000Z,984.1
2023-01-31T07:50:48.046Z,984.6
2023-01-31T08:20:51.121Z,984.4
2023-01-31T08:50:59.000Z,984.3
2023-01-31T09:21:01.103Z,984
2023-01-31T09:51:03.884Z,984.3
2023-01-31T10:21:08.885Z,984.1
2023-01-31T10:51:09.000Z,984.1
2023-01-31T11:21:12.000Z,983.8
2023-01-31T11:51:17.192Z,983.6
2023-01-31T12:21:26.212Z,983
2023-01-31T12:51:29.000Z,982.7
2023-01-31T13:21:32.117Z,982.6
2023-01-31T13:51:34.259Z,981.9
2023-01-31T14:21:37.000Z,982.1
2023-01-31T14:51:38.128Z,981.8
2023-01-31T15:21:42.000Z,981.8
2023-01-31T15:51:44.092Z,981.9
2023-01-31T16:21:47.000Z,982.2
2023-01-31T16:51:49.118Z,982.4
2023-01-31T17:21:57.000Z,982.8
2023-01-31T17:52:01.010Z,982.8
2023-01-31T18:22:05.031Z,982.6
2023-01-31T18:52:08.000Z,982.4
2023-01-31T19:22:08.976Z,982.7
2023-01-31T19:52:14.000Z,982.4
2023-01-31T20:22:15.029Z,982.2
2023-01-31T20:52:25.906Z,982.1
2023-01-31T21:22:33.000Z,982.4
2023-01-31T21:52:36.845Z,981.4
2023-01-31T22:22:39.000Z,981.3
2023-01-31T22:52:41.778Z,982
2023-01-31T23:22:43.812Z,981.8
2023-01-31T23:52:46.292Z,981.6
